createdAt,value
2023-03-12T00:00:06.899Z,80.20
2023-03-12T00:05:06.834Z,79.75
2023-03-12T00:10:06.799Z,76.82
2023-03-12T00:15:06.676Z,76.79
2023-03-12T00:20:06.662Z,76.79
2023-03-12T00:25:06.602Z,75.95
2023-03-12T00:30:06.519Z,77.00
2023-03-12T00:35:06.443Z,77.20
2023-03-12T00:40:06.403Z,77.94
2023-03-12T00:45:06.309Z,78.35
2023-03-12T00:50:06.591Z,81.49
2023-03-12T00:55:06.160Z,82.43
2023-03-12T01:00:06.183Z,82.05
2023-03-12T01:10:54.951Z,83.68
2023-03-12T01:15:54.915Z,82.74
2023-03-12T01:20:54.805Z,79.82
2023-03-12T01:25:54.762Z,78.25
2023-03-12T01:30:54.684Z,80.96
2023-03-12T01:35:54.676Z,81.59
2023-03-12T01:40:54.643Z,82.43
2023-03-12T01:45:54.487Z,78.46
2023-03-12T01:50:54.427Z,79.05
2023-03-12T01:55:54.352Z,77.48
2023-03-12T02:00:54.324Z,77.90
2023-03-12T02:05:54.236Z,78.21
2023-03-12T02:10:54.181Z,79.15
2023-03-12T02:15:54.076Z,79.99
2023-03-12T02:20:54.078Z,78.88
2023-03-12T02:25:54.000Z,78.88
2023-03-12T02:30:53.950Z,81.80
2023-03-12T02:35:53.860Z,81.49
2023-03-12T02:40:53.792Z,80.34
2023-03-12T02:45:53.743Z,80.13
2023-03-12T02:50:53.680Z,80.02
2023-03-12T02:55:53.570Z,81.28
2023-03-12T03:00:53.535Z,79.29
2023-03-12T03:05:53.463Z,81.45
2023-03-12T03:10:53.404Z,81.45
2023-03-12T03:15:53.372Z,82.32
2023-03-12T03:20:53.293Z,83.78
2023-03-12T03:25:53.199Z,83.16
2023-03-12T03:30:53.236Z,83.54
2023-03-12T03:35:53.088Z,84.10
2023-03-12T03:40:53.034Z,82.12
2023-03-12T03:45:52.987Z,81.76
2023-03-12T03:50:52.882Z,81.76
2023-03-12T03:55:52.827Z,84.58
2023-03-12T04:00:52.754Z,84.58
2023-03-12T04:05:52.684Z,82.70
2023-03-12T04:10:52.627Z,81.13
2023-03-12T04:15:52.633Z,81.03
2023-03-12T04:20:52.475Z,80.30
2023-03-12T04:25:52.416Z,79.47
2023-03-12T04:30:52.398Z,77.34
2023-03-12T04:35:52.320Z,76.72
2023-03-12T04:40:52.282Z,76.57
2023-03-12T04:45:52.163Z,75.74
2023-03-12T04:50:52.112Z,77.83
2023-03-12T04:55:52.046Z,78.97
2023-03-12T05:00:52.013Z,78.87
2023-03-12T05:05:51.914Z,80.09
2023-03-12T05:10:51.881Z,81.02
2023-03-12T05:15:51.772Z,81.86
2023-03-12T05:20:51.740Z,82.90
2023-03-12T05:25:51.664Z,84.78
2023-03-12T05:30:51.614Z,86.13
2023-03-12T05:35:51.595Z,87.22
2023-03-12T05:40:51.518Z,89.10
2023-03-12T05:45:51.428Z,89.83
2023-03-12T05:50:51.353Z,90.66
2023-03-12T05:55:51.284Z,91.50
2023-03-12T06:00:51.223Z,91.81
2023-03-12T06:05:51.150Z,92.40
2023-03-12T06:10:51.101Z,92.81
2023-03-12T06:15:51.021Z,93.44
2023-03-12T06:20:50.972Z,94.79
2023-03-12T06:25:50.887Z,95.15
2023-03-12T06:30:50.842Z,95.56
2023-03-12T06:35:50.780Z,95.78
2023-03-12T06:40:50.703Z,95.83
2023-03-12T06:45:50.666Z,96.25
2023-03-12T06:50:50.579Z,96.46
2023-03-12T06:55:50.507Z,96.36
2023-03-12T07:01:05.510Z,95.83
2023-03-12T07:05:57.936Z,96.04
2023-03-12T07:11:00.754Z,95.94
2023-03-12T07:15:57.890Z,96.00
2023-03-12T07:20:57.718Z,95.37
2023-03-12T07:25:57.655Z,95.48
2023-03-12T07:30:57.628Z,95.06
2023-03-12T07:35:57.635Z,95.06
2023-03-12T07:40:57.463Z,94.75
2023-03-12T07:45:57.406Z,94.12
2023-03-12T07:50:57.316Z,94.08
2023-03-12T07:55:57.433Z,94.08
2023-03-12T08:00:57.300Z,93.98
2023-03-12T08:05:57.227Z,93.46
2023-03-12T08:10:57.070Z,93.24
2023-03-12T08:15:57.060Z,93.20
2023-03-12T08:20:56.952Z,93.41
2023-03-12T08:25:56.974Z,93.10
2023-03-12T08:30:56.803Z,93.20
2023-03-12T08:35:56.773Z,93.52
2023-03-12T08:40:56.676Z,92.85
2023-03-12T08:45:56.689Z,93.16
2023-03-12T08:50:56.545Z,93.48
2023-03-12T08:55:56.505Z,93.12
2023-03-12T09:00:56.449Z,93.12
2023-03-12T09:05:56.401Z,93.95
2023-03-12T09:10:56.291Z,94.22
2023-03-12T09:15:56.259Z,94.64
2023-03-12T09:20:56.159Z,95.26
2023-03-12T09:25:56.112Z,95.36
2023-03-12T09:30:56.135Z,95.63
2023-03-12T09:35:56.009Z,95.94
2023-03-12T09:40:55.883Z,96.78
2023-03-12T09:45:55.884Z,96.27
2023-03-12T09:50:55.848Z,95.96
2023-03-12T09:55:55.698Z,96.62
2023-03-12T10:00:55.654Z,97.00
2023-03-12T10:05:55.600Z,96.85
2023-03-12T10:10:55.524Z,96.70
2023-03-12T10:15:55.584Z,95.62
2023-03-12T10:20:55.406Z,95.06
2023-03-12T10:25:55.367Z,94.60
2023-03-12T10:30:55.323Z,94.49
2023-03-12T10:35:55.273Z,93.33
2023-03-12T10:40:55.159Z,92.63
2023-03-12T10:45:55.088Z,91.86
2023-03-12T10:50:55.003Z,90.68
2023-03-12T10:55:54.950Z,90.06
2023-03-12T11:00:54.880Z,91.09
2023-03-12T11:05:54.855Z,90.59
2023-03-12T11:10:54.733Z,89.58
2023-03-12T11:15:54.772Z,86.88
2023-03-12T11:20:54.644Z,87.34
2023-03-12T11:25:54.543Z,88.10
2023-03-12T11:30:54.469Z,87.46
2023-03-12T11:35:54.463Z,86.91
2023-03-12T11:40:54.360Z,86.29
2023-03-12T11:45:54.269Z,81.71
2023-03-12T11:50:54.459Z,77.70
2023-03-12T11:55:54.172Z,75.89
2023-03-12T12:00:54.269Z,77.67
2023-03-12T12:05:54.053Z,82.12
2023-03-12T12:10:53.952Z,82.81
2023-03-12T12:15:53.913Z,83.42
2023-03-12T12:20:53.836Z,84.04
2023-03-12T12:25:53.780Z,85.85
2023-03-12T12:30:53.692Z,85.33
2023-03-12T12:35:53.669Z,85.33
2023-03-12T12:40:53.552Z,85.95
2023-03-12T12:45:53.511Z,85.95
2023-03-12T12:50:53.403Z,87.24
2023-03-12T12:55:53.396Z,86.32
2023-03-12T13:00:53.353Z,87.20
2023-03-12T13:05:53.222Z,86.18
2023-03-12T13:10:57.920Z,85.22
2023-03-12T13:15:54.125Z,84.22
2023-03-12T13:20:53.028Z,82.56
2023-03-12T13:25:52.992Z,80.85
2023-03-12T13:30:52.957Z,79.52
2023-03-12T13:35:52.888Z,80.20
2023-03-12T13:40:52.752Z,81.60
2023-03-12T13:45:52.737Z,79.35
2023-03-12T13:50:52.623Z,78.84
2023-03-12T13:55:52.565Z,80.30
2023-03-12T14:00:52.520Z,83.23
2023-03-12T14:05:52.522Z,84.96
2023-03-12T14:10:53.306Z,83.33
2023-03-12T14:15:52.461Z,80.88
2023-03-12T14:20:52.268Z,81.90
2023-03-12T14:25:52.169Z,83.57
2023-03-12T14:30:53.152Z,84.67
2023-03-12T14:35:52.087Z,84.94
2023-03-12T14:40:51.965Z,84.94
2023-03-12T14:45:51.924Z,85.53
2023-03-12T14:50:51.840Z,85.32
2023-03-12T14:55:51.826Z,85.32
2023-03-12T15:00:52.632Z,86.08
2023-03-12T15:05:51.621Z,86.08
2023-03-12T15:10:52.585Z,85.83
2023-03-12T15:15:52.502Z,85.42
2023-03-12T15:20:51.418Z,85.22
2023-03-12T15:25:51.384Z,84.61
2023-03-12T15:30:51.338Z,83.83
2023-03-12T15:35:51.406Z,82.91
2023-03-12T15:40:52.122Z,82.60
2023-03-12T15:45:52.286Z,82.29
2023-03-12T15:50:52.057Z,81.99
2023-03-12T15:55:50.964Z,82.29
2023-03-12T16:00:50.952Z,82.70
2023-03-12T16:05:50.918Z,82.29
2023-03-12T16:10:50.797Z,82.50
2023-03-12T16:15:50.728Z,81.88
2023-03-12T16:20:50.639Z,82.34
2023-03-12T16:25:50.567Z,82.13
2023-03-12T16:30:51.438Z,81.72
2023-03-12T16:35:50.488Z,81.62
2023-03-12T16:40:51.704Z,81.62
2023-03-12T16:45:50.335Z,81.51
2023-03-12T16:50:50.241Z,81.62
2023-03-12T16:55:50.218Z,81.41
2023-03-12T17:00:50.221Z,81.51
2023-03-12T17:05:51.044Z,81.45
2023-03-12T17:10:51.070Z,81.15
2023-03-12T17:15:49.969Z,81.15
2023-03-12T17:20:49.832Z,80.53
2023-03-12T17:25:49.774Z,80.43
2023-03-12T17:30:49.739Z,80.94
2023-03-12T17:35:49.749Z,80.98
2023-03-12T17:40:49.577Z,81.08
2023-03-12T17:45:49.549Z,81.08
2023-03-12T17:50:49.434Z,80.88
2023-03-12T17:55:49.397Z,81.12
2023-03-12T18:00:49.275Z,81.43
2023-03-12T18:05:49.995Z,81.22
2023-03-12T18:10:49.188Z,82.24
2023-03-12T18:15:49.198Z,81.57
2023-03-12T18:20:49.085Z,82.79
2023-03-12T18:25:48.990Z,82.08
2023-03-12T18:30:49.053Z,82.69
2023-03-12T18:35:48.939Z,83.10
2023-03-12T18:40:48.808Z,83.55
2023-03-12T18:45:48.724Z,83.76
2023-03-12T18:50:48.650Z,81.81
2023-03-12T18:55:48.598Z,79.82
2023-03-12T19:00:48.519Z,81.46
2023-03-12T19:05:48.467Z,82.73
2023-03-12T19:10:48.410Z,83.80
2023-03-12T19:15:48.343Z,84.96
2023-03-12T19:20:48.932Z,80.65
2023-03-12T19:25:48.266Z,78.28
2023-03-12T19:30:48.116Z,78.22
2023-03-12T19:35:48.115Z,79.59
2023-03-12T19:40:48.171Z,81.68
2023-03-12T19:45:48.007Z,83.26
2023-03-12T19:50:47.880Z,83.91
2023-03-12T19:55:47.840Z,85.18
2023-03-12T20:00:47.709Z,85.70
2023-03-12T20:05:47.712Z,86.25
2023-03-12T20:10:47.595Z,86.97
2023-03-12T20:15:48.596Z,87.73
2023-03-12T20:20:47.491Z,88.18
2023-03-12T20:25:47.429Z,87.12
2023-03-12T20:30:47.323Z,85.84
2023-03-12T20:35:50.169Z,85.43
2023-03-12T20:40:47.234Z,85.53
2023-03-12T20:45:47.180Z,85.53
2023-03-12T20:50:47.160Z,86.05
2023-03-12T20:55:47.035Z,86.35
2023-03-12T21:00:46.965Z,86.56
2023-03-12T21:05:46.886Z,86.46
2023-03-12T21:10:46.797Z,86.25
2023-03-12T21:15:46.751Z,86.35
2023-03-12T21:20:46.721Z,86.00
2023-03-12T21:25:46.647Z,86.00
2023-03-12T21:30:46.633Z,86.77
2023-03-12T21:35:46.761Z,87.73
2023-03-12T21:40:46.421Z,88.04
2023-03-12T21:45:46.378Z,89.22
2023-03-12T21:50:47.116Z,88.86
2023-03-12T21:55:46.274Z,88.86
2023-03-12T22:00:46.162Z,88.66
2023-03-12T22:05:46.083Z,88.31
2023-03-12T22:10:47.822Z,87.49
2023-03-12T22:15:46.401Z,86.93
2023-03-12T22:20:45.913Z,86.72
2023-03-12T22:25:45.869Z,87.13
2023-03-12T22:30:45.757Z,87.45
2023-03-12T22:35:45.733Z,86.93
2023-03-12T22:40:45.596Z,87.24
2023-03-12T22:45:45.570Z,87.13
2023-03-12T22:50:45.529Z,87.13
2023-03-12T22:55:45.530Z,86.93
2023-03-12T23:00:45.382Z,86.93
2023-03-12T23:05:45.320Z,87.65
2023-03-12T23:10:45.227Z,87.34
2023-03-12T23:15:45.221Z,87.10
2023-03-12T23:20:45.104Z,86.58
2023-03-12T23:25:45.148Z,87.10
2023-03-12T23:30:44.917Z,87.51
2023-03-12T23:35:45.016Z,88.27
2023-03-12T23:40:44.820Z,88.98
2023-03-12T23:45:44.815Z,89.19
2023-03-12T23:50:44.703Z,89.50
2023-03-12T23:55:44.629Z,89.70
